Airfield :
LOGIN :

Register | Disclaimer

   EN    FR    IT 

 










Legend :    VFR   Marginal VFR   IFR   Intensive IFR   Very Intensive IFR
Visi :
Ceiling :
>= 8 km
>= 3000ft
5 to 8 km
1000 to 3000 ft
1500m to 5 km
500 to 1000 ft
800 to 1500m
200 to 500 ft
< 800m
< 200 ft
Symbols :   Thunderstorms  Fog  Heavy snow  Heavy precipitations  Wind > 20 kt
SIGMETs :     Misc.  Thunderstorms  Icing  Turbulence  Mountain Waves  Volcanic Ashes






- Airport Elevation : 84 ft


LFBC - Cazaux

CURRENT METAR :
  • 131630Z AUTO 04008KT 330V080 CAVOK 23/13 Q1013

EXPIRED METARs :
  • 131600Z AUTO 03006KT 310V090 CAVOK 23/13 Q1013
  • 131530Z AUTO 06005KT 350V120 CAVOK 24/12 Q1013
  • 131500Z AUTO VRB06KT CAVOK 24/11 Q1013
  • 131430Z AUTO VRB03KT 9999 BKN049 24/12 Q1014
  • 131400Z AUTO 09005KT 020V170 CAVOK 24/12 Q1014
  • 131330Z AUTO 10005KT 090V170 CAVOK 24/11 Q1014
  • 131300Z AUTO 05007KT 360V090 9999 BKN047 BKN098 23/11 Q1014
  • 131230Z AUTO VRB05KT 9999 FEW045 SCT100 23/12 Q1015
  • 131200Z AUTO 09006KT 040V150 9999 FEW044 BKN054 22/11 Q1015

Expired Forecast.



MET'MAP, your aeronautical weather chart ! - Copyright ORBIFLY December 2007 - Disclaimer

ORBIFLY MET'MAP TEAM :

Programming & Development : Alexandra Zaïnal
Original concept : Baudouin d'Aumeries
Technical & hardware support : Manuel Goepfert
Assistance : Marc-Olivier Méhu




SOURCES & CREDITS :

   NOAA